Time;durP1;ratioP1;P1;durP2;ratioP2;P2;SDS_P1;SDS_P2;PMS_P1;PMS_P2;Temp;Humidity;BMP_temperature;BMP_pressure;BME280_temperature;BME280_humidity;BME280_pressure;Samples;Min_cycle;Max_cycle;Signal;HPM_P1;HPM_P2
2021/01/15 00:02:03;;;;;;;3.05;1.02;;;8.80;99.90;;;;;;4724391;30;20064;-75
2021/01/15 00:04:32;;;;;;;3.28;0.55;;;8.80;99.90;;;;;;4726694;30;20039;-75
2021/01/15 00:07:05;;;;;;;1.15;0.40;;;8.80;99.90;;;;;;4722260;30;20040;-76
2021/01/15 00:09:31;;;;;;;1.33;0.60;;;8.80;99.90;;;;;;4727159;30;20087;-75
2021/01/15 00:11:57;;;;;;;4.40;0.77;;;8.80;99.90;;;;;;4720693;30;20477;-75
2021/01/15 00:14:24;;;;;;;0.82;0.60;;;8.80;99.90;;;;;;4717617;30;20048;-76
2021/01/15 00:16:56;;;;;;;4.28;0.80;;;8.80;99.90;;;;;;4727250;30;20059;-76
2021/01/15 00:19:22;;;;;;;0.98;0.60;;;8.80;99.90;;;;;;4737368;30;20038;-75
2021/01/15 00:21:49;;;;;;;1.48;0.68;;;8.80;99.90;;;;;;4738712;30;20124;-76
2021/01/15 00:24:17;;;;;;;1.33;0.50;;;8.80;99.90;;;;;;4734055;30;20041;-75
2021/01/15 00:26:44;;;;;;;2.67;0.63;;;8.70;99.90;;;;;;4724810;30;20040;-77
2021/01/15 00:29:12;;;;;;;0.82;0.60;;;8.70;99.90;;;;;;4715722;30;20041;-76
2021/01/15 00:31:40;;;;;;;5.72;0.57;;;8.70;99.90;;;;;;4739690;30;20060;-76
2021/01/15 00:34:09;;;;;;;0.90;0.47;;;8.60;99.90;;;;;;4730907;30;20399;-77
2021/01/15 00:36:36;;;;;;;3.97;1.98;;;8.60;99.90;;;;;;4718142;30;20091;-76
2021/01/15 00:39:05;;;;;;;0.80;0.52;;;8.60;99.90;;;;;;4716821;30;20041;-75
2021/01/15 00:41:35;;;;;;;1.60;0.68;;;8.60;99.90;;;;;;4731403;30;20037;-76
2021/01/15 00:44:02;;;;;;;1.40;0.70;;;8.60;99.90;;;;;;4726614;30;20380;-75
2021/01/15 00:46:31;;;;;;;0.90;0.70;;;8.60;99.90;;;;;;4717190;30;20395;-76
2021/01/15 00:49:06;;;;;;;0.65;0.45;;;8.60;99.90;;;;;;4728220;30;20364;-76
2021/01/15 00:51:34;;;;;;;1.17;0.68;;;8.60;99.90;;;;;;4741288;30;20047;-75
2021/01/15 00:54:00;;;;;;;0.60;0.40;;;8.60;99.90;;;;;;4729707;30;20025;-75
2021/01/15 00:56:26;;;;;;;1.65;0.50;;;8.70;99.90;;;;;;4715690;30;20041;-76
2021/01/15 00:58:53;;;;;;;3.17;0.60;;;8.60;99.90;;;;;;4715718;30;20475;-78
2021/01/15 01:01:26;;;;;;;4.45;0.60;;;8.60;99.90;;;;;;4731475;30;20036;-78
2021/01/15 01:03:56;;;;;;;2.95;0.75;;;8.50;99.90;;;;;;4747949;30;20040;-77
2021/01/15 01:06:23;;;;;;;2.17;1.08;;;8.40;99.90;;;;;;4718455;30;20072;-76
2021/01/15 01:08:50;;;;;;;0.95;0.32;;;8.40;99.90;;;;;;4727171;30;20041;-78
2021/01/15 01:11:19;;;;;;;1.10;0.80;;;8.40;99.90;;;;;;4725665;30;20115;-77
2021/01/15 01:13:48;;;;;;;1.40;0.73;;;8.40;99.90;;;;;;4751746;30;20461;-76
2021/01/15 01:16:15;;;;;;;1.40;0.60;;;8.40;99.90;;;;;;4732793;30;20034;-77
2021/01/15 01:18:42;;;;;;;3.40;0.70;;;8.40;99.90;;;;;;4719008;30;20456;-76
2021/01/15 01:21:09;;;;;;;4.25;1.00;;;8.40;99.90;;;;;;4734991;30;20071;-77
2021/01/15 01:23:35;;;;;;;3.20;0.55;;;8.40;99.90;;;;;;4734823;30;20041;-77
2021/01/15 01:26:02;;;;;;;1.73;0.90;;;8.40;99.90;;;;;;4721793;30;20451;-76
2021/01/15 01:28:28;;;;;;;2.08;0.70;;;8.40;99.90;;;;;;4716416;30;20034;-75
2021/01/15 01:30:54;;;;;;;3.53;1.10;;;8.40;99.90;;;;;;4716374;30;20102;-76
2021/01/15 01:33:20;;;;;;;3.78;0.77;;;8.40;99.90;;;;;;4745329;30;20573;-76
2021/01/15 01:35:46;;;;;;;2.42;0.85;;;8.40;99.90;;;;;;4742432;30;20045;-76
2021/01/15 01:38:12;;;;;;;1.92;0.47;;;8.40;99.90;;;;;;4733995;30;20408;-76
2021/01/15 01:40:38;;;;;;;4.80;0.80;;;8.40;99.90;;;;;;4733123;30;20091;-76
2021/01/15 01:43:04;;;;;;;7.90;1.00;;;8.40;99.90;;;;;;4733536;30;20498;-76
2021/01/15 01:45:31;;;;;;;3.65;0.90;;;8.50;99.90;;;;;;4730292;30;20045;-76
2021/01/15 01:47:58;;;;;;;3.22;0.90;;;8.50;99.90;;;;;;4716391;30;20108;-76
2021/01/15 01:50:26;;;;;;;4.28;1.10;;;8.50;99.90;;;;;;4723732;30;20040;-76
2021/01/15 01:52:52;;;;;;;6.60;0.88;;;8.50;99.90;;;;;;4730977;30;20056;-76
2021/01/15 01:55:19;;;;;;;1.75;0.65;;;8.50;99.90;;;;;;4733439;30;20161;-76
2021/01/15 01:57:45;;;;;;;1.27;0.70;;;8.70;99.90;;;;;;4717036;30;20041;-75
2021/01/15 02:00:13;;;;;;;2.58;0.70;;;8.70;99.90;;;;;;4716059;30;20029;-76
2021/01/15 02:02:39;;;;;;;1.35;0.68;;;8.70;99.90;;;;;;4720237;30;20067;-76
2021/01/15 02:05:06;;;;;;;5.82;0.80;;;8.70;99.90;;;;;;4717705;30;20144;-76
2021/01/15 02:07:33;;;;;;;2.50;0.85;;;8.80;99.90;;;;;;4714753;30;20115;-76
2021/01/15 02:10:17;;;;;;;1.77;1.00;;;8.80;99.90;;;;;;4715813;30;20076;-76
2021/01/15 02:13:02;;;;;;;1.42;0.50;;;8.80;99.90;;;;;;4732265;30;20040;-76
2021/01/15 02:15:37;;;;;;;2.10;0.50;;;8.80;99.90;;;;;;4715604;30;20499;-76
2021/01/15 02:18:06;;;;;;;0.52;0.38;;;8.80;99.90;;;;;;4715618;30;20197;-77
2021/01/15 02:20:53;;;;;;;0.98;0.22;;;8.70;99.90;;;;;;4716157;30;20041;-77
2021/01/15 02:23:49;;;;;;;1.95;0.65;;;8.70;99.90;;;;;;4733066;30;20343;-77
2021/01/15 02:26:38;;;;;;;1.60;0.63;;;8.70;99.90;;;;;;4728722;30;20123;-77
2021/01/15 02:29:11;;;;;;;2.83;0.47;;;8.70;99.90;;;;;;4723332;30;20040;-76
2021/01/15 02:31:46;;;;;;;0.98;0.63;;;8.70;99.90;;;;;;4725570;30;20053;-76
2021/01/15 02:34:31;;;;;;;0.95;0.40;;;8.80;99.90;;;;;;4720906;30;20036;-76
2021/01/15 02:37:01;;;;;;;0.65;0.40;;;8.80;99.90;;;;;;4732918;30;20036;-76
2021/01/15 02:40:03;;;;;;;2.47;0.73;;;8.80;99.90;;;;;;4732701;30;20082;-76
2021/01/15 02:42:40;;;;;;;2.33;0.52;;;8.90;99.90;;;;;;4721488;30;20048;-76
2021/01/15 02:45:11;;;;;;;1.52;0.50;;;8.80;99.90;;;;;;4724521;30;20051;-76
2021/01/15 02:47:48;;;;;;;1.50;0.75;;;8.80;99.90;;;;;;4732595;30;20404;-76
2021/01/15 02:50:16;;;;;;;1.17;0.50;;;8.90;99.90;;;;;;4732482;30;20044;-76
2021/01/15 02:52:43;;;;;;;9.27;0.63;;;8.90;99.90;;;;;;4722863;30;20040;-75
2021/01/15 02:55:11;;;;;;;2.50;0.75;;;9.00;99.90;;;;;;4721865;30;20111;-76
2021/01/15 02:57:38;;;;;;;1.23;0.50;;;9.00;99.90;;;;;;4732449;30;20036;-76
2021/01/15 03:00:10;;;;;;;2.88;0.50;;;9.10;99.90;;;;;;4731243;30;20491;-75
2021/01/15 03:02:48;;;;;;;2.00;0.40;;;9.00;99.90;;;;;;4725743;30;20036;-76
2021/01/15 03:05:22;;;;;;;1.95;0.50;;;9.00;99.90;;;;;;4719141;30;20040;-76
2021/01/15 03:07:51;;;;;;;3.35;0.60;;;9.00;99.90;;;;;;4732194;30;20395;-76
2021/01/15 03:10:24;;;;;;;1.23;0.73;;;9.00;99.90;;;;;;4730431;30;20059;-76
2021/01/15 03:12:52;;;;;;;3.75;0.77;;;9.00;99.90;;;;;;4733882;30;20039;-76
2021/01/15 03:15:20;;;;;;;1.25;0.70;;;9.10;99.90;;;;;;4731001;30;20043;-76
2021/01/15 03:17:48;;;;;;;4.03;0.70;;;9.00;99.90;;;;;;4731993;30;20497;-76
2021/01/15 03:20:15;;;;;;;1.77;0.73;;;9.00;99.90;;;;;;4731979;30;20029;-76
2021/01/15 03:22:45;;;;;;;2.53;0.50;;;9.00;99.90;;;;;;4729732;30;20040;-76
2021/01/15 03:25:13;;;;;;;1.17;0.57;;;8.90;99.90;;;;;;4715131;30;20041;-75
2021/01/15 03:27:50;;;;;;;2.50;0.65;;;8.70;99.90;;;;;;4730081;30;20040;-76
2021/01/15 03:30:18;;;;;;;2.03;0.70;;;8.80;99.90;;;;;;4731852;30;20107;-78
2021/01/15 03:32:46;;;;;;;2.70;0.68;;;8.80;99.90;;;;;;4731341;30;20067;-76
2021/01/15 03:35:34;;;;;;;1.15;0.80;;;8.90;99.90;;;;;;4714941;30;20048;-77
2021/01/15 03:38:04;;;;;;;1.15;0.50;;;9.00;99.90;;;;;;4723707;30;20041;-76
2021/01/15 03:40:42;;;;;;;2.47;0.63;;;9.00;99.90;;;;;;4714613;30;20041;-76
2021/01/15 03:43:19;;;;;;;1.38;0.60;;;9.10;99.90;;;;;;4714326;30;20025;-76
2021/01/15 03:45:47;;;;;;;0.63;0.60;;;9.10;99.90;;;;;;4714174;30;20049;-76
2021/01/15 03:48:15;;;;;;;1.42;0.60;;;9.20;99.90;;;;;;4724956;30;20069;-77
2021/01/15 03:50:41;;;;;;;0.90;0.50;;;9.20;99.90;;;;;;4714534;30;20108;-76
2021/01/15 03:53:08;;;;;;;2.88;0.70;;;9.30;99.90;;;;;;4714229;30;20037;-75
2021/01/15 03:55:34;;;;;;;1.75;0.70;;;9.30;99.90;;;;;;4714115;30;20045;-74
2021/01/15 03:58:01;;;;;;;2.80;0.88;;;9.40;99.90;;;;;;4719355;30;20443;-75
2021/01/15 04:00:27;;;;;;;1.40;0.65;;;9.40;99.90;;;;;;4731607;30;20043;-74
2021/01/15 04:02:53;;;;;;;3.03;0.70;;;9.30;99.90;;;;;;4731632;30;20047;-74
2021/01/15 04:05:19;;;;;;;2.65;1.08;;;9.40;99.90;;;;;;4730521;30;20115;-74
2021/01/15 04:07:46;;;;;;;2.67;1.70;;;9.40;99.90;;;;;;4730220;30;20444;-74
2021/01/15 04:10:14;;;;;;;3.00;0.70;;;9.30;99.90;;;;;;4731228;30;20491;-75
2021/01/15 04:12:41;;;;;;;0.68;0.50;;;9.30;99.90;;;;;;4731780;30;20036;-75
2021/01/15 04:15:12;;;;;;;1.77;1.08;;;9.30;99.90;;;;;;4731543;30;20033;-75
2021/01/15 04:17:39;;;;;;;1.77;0.50;;;9.30;99.90;;;;;;4731131;30;20094;-75
2021/01/15 04:20:07;;;;;;;7.43;0.63;;;9.30;99.90;;;;;;4728546;30;20032;-74
2021/01/15 04:22:37;;;;;;;1.42;0.70;;;9.30;99.90;;;;;;4731522;30;20032;-75
2021/01/15 04:25:05;;;;;;;6.43;0.77;;;9.30;99.90;;;;;;4731442;30;20661;-75
2021/01/15 04:27:32;;;;;;;5.13;0.82;;;9.20;99.90;;;;;;4731723;30;20071;-74
2021/01/15 04:29:58;;;;;;;1.40;0.60;;;9.10;99.90;;;;;;4727740;30;20037;-74
2021/01/15 04:32:25;;;;;;;2.13;0.40;;;9.10;99.90;;;;;;4731218;30;20043;-75
2021/01/15 04:34:51;;;;;;;1.30;0.63;;;9.00;99.90;;;;;;4731302;30;20028;-75
2021/01/15 04:37:17;;;;;;;3.40;0.60;;;8.90;99.90;;;;;;4731406;30;20032;-75
2021/01/15 04:39:43;;;;;;;2.67;0.60;;;8.90;99.90;;;;;;4729685;30;20539;-76
2021/01/15 04:42:14;;;;;;;1.92;0.60;;;8.80;99.90;;;;;;4730412;30;20040;-76
2021/01/15 04:44:41;;;;;;;1.27;0.55;;;8.80;99.90;;;;;;4733292;30;20037;-77
2021/01/15 04:47:08;;;;;;;2.00;0.63;;;8.70;99.90;;;;;;4734406;30;20044;-75
2021/01/15 04:49:36;;;;;;;2.40;0.63;;;8.70;99.90;;;;;;4734157;30;20149;-75
2021/01/15 04:52:03;;;;;;;2.92;0.70;;;8.70;99.90;;;;;;4717202;30;20065;-75
2021/01/15 04:54:40;;;;;;;2.58;0.70;;;8.70;99.90;;;;;;4717061;30;20060;-76
2021/01/15 04:57:11;;;;;;;2.13;1.00;;;8.70;99.90;;;;;;4716878;30;20044;-75
2021/01/15 04:59:47;;;;;;;2.03;1.00;;;8.70;99.90;;;;;;4724972;30;20041;-76
2021/01/15 05:02:15;;;;;;;2.60;0.80;;;8.70;99.90;;;;;;4717174;30;20138;-76
2021/01/15 05:04:41;;;;;;;2.85;0.82;;;8.70;99.90;;;;;;4716991;30;20117;-75
2021/01/15 05:07:12;;;;;;;2.17;0.80;;;8.70;99.90;;;;;;4716737;30;20491;-76
2021/01/15 05:09:46;;;;;;;1.65;0.77;;;8.70;99.90;;;;;;4722570;30;20087;-75
2021/01/15 05:12:15;;;;;;;4.20;0.60;;;8.70;99.90;;;;;;4724072;30;20483;-76
2021/01/15 05:14:50;;;;;;;1.73;0.43;;;8.70;99.90;;;;;;4751967;30;20056;-75
2021/01/15 05:17:17;;;;;;;2.00;0.70;;;8.70;99.90;;;;;;4751587;30;20047;-75
2021/01/15 05:19:44;;;;;;;0.85;0.47;;;8.70;99.90;;;;;;4746804;30;20032;-75
2021/01/15 05:22:11;;;;;;;1.17;0.40;;;8.60;99.90;;;;;;4722078;30;20048;-75
2021/01/15 05:24:38;;;;;;;2.15;0.73;;;8.50;99.90;;;;;;4716314;30;20049;-75
2021/01/15 05:30:17;;;;;;;0.82;0.60;;;8.20;99.90;;;;;;4714640;30;20066;-75
2021/01/15 05:32:47;;;;;;;1.73;0.60;;;8.20;99.90;;;;;;4714169;30;20493;-75
2021/01/15 05:35:14;;;;;;;1.85;0.63;;;8.20;99.90;;;;;;4724381;30;20112;-75
2021/01/15 05:37:41;;;;;;;11.45;0.68;;;8.20;99.90;;;;;;4724796;30;20029;-75
2021/01/15 05:40:08;;;;;;;3.33;0.57;;;8.20;99.90;;;;;;4721704;30;20077;-75
2021/01/15 05:42:50;;;;;;;0.88;0.50;;;8.30;99.90;;;;;;4751456;30;20043;-76
2021/01/15 05:45:16;;;;;;;1.75;1.02;;;8.30;99.90;;;;;;4751235;30;20502;-76
2021/01/15 05:47:46;;;;;;;2.25;0.93;;;8.20;99.90;;;;;;4740730;30;20487;-76
2021/01/15 05:50:13;;;;;;;5.82;0.70;;;8.10;99.90;;;;;;4716871;30;20044;-76
2021/01/15 05:52:58;;;;;;;1.75;0.70;;;8.00;99.90;;;;;;4749895;30;20398;-77
2021/01/15 05:55:27;;;;;;;2.17;0.70;;;7.80;99.90;;;;;;4734912;30;20071;-78
2021/01/15 05:57:53;;;;;;;1.75;0.90;;;7.70;99.90;;;;;;4740454;30;20025;-76
2021/01/15 06:00:25;;;;;;;0.82;0.57;;;7.70;99.90;;;;;;4715956;30;20029;-77
2021/01/15 06:02:53;;;;;;;2.90;0.55;;;7.60;99.90;;;;;;4750189;30;20131;-76
2021/01/15 06:05:22;;;;;;;1.02;0.50;;;7.60;99.90;;;;;;4750750;30;20463;-76
2021/01/15 06:07:58;;;;;;;2.08;1.02;;;7.60;99.90;;;;;;4747944;30;20032;-76
2021/01/15 06:10:25;;;;;;;4.15;0.80;;;7.70;99.90;;;;;;4715738;30;20040;-76
2021/01/15 06:12:52;;;;;;;2.03;1.27;;;7.70;99.90;;;;;;4745250;30;20065;-76
2021/01/15 06:15:18;;;;;;;2.70;0.88;;;7.80;99.90;;;;;;4745090;30;20157;-77
2021/01/15 06:17:52;;;;;;;3.67;1.30;;;7.90;99.90;;;;;;4732827;30;20068;-76
2021/01/15 06:20:22;;;;;;;5.15;1.10;;;8.00;99.90;;;;;;4733005;30;20563;-76
2021/01/15 06:22:51;;;;;;;2.95;1.35;;;8.00;99.90;;;;;;4744424;30;20390;-76
2021/01/15 06:25:33;;;;;;;3.22;1.15;;;8.10;99.90;;;;;;4747553;30;20054;-76
2021/01/15 06:28:03;;;;;;;7.38;1.08;;;8.10;99.90;;;;;;4732551;30;20032;-76
2021/01/15 06:30:34;;;;;;;3.45;1.00;;;8.10;99.90;;;;;;4732839;30;20120;-76
2021/01/15 06:33:11;;;;;;;1.77;1.13;;;8.10;99.90;;;;;;4743219;30;20479;-76
2021/01/15 06:35:39;;;;;;;3.40;1.13;;;8.00;99.90;;;;;;4746007;30;20062;-75
2021/01/15 06:38:06;;;;;;;2.60;0.98;;;7.90;99.90;;;;;;4715209;30;20029;-76
2021/01/15 06:40:40;;;;;;;3.63;0.73;;;7.80;99.90;;;;;;4715437;30;20037;-75
2021/01/15 06:43:08;;;;;;;3.30;1.30;;;7.80;99.90;;;;;;4733093;30;20119;-75
2021/01/15 06:45:55;;;;;;;2.47;0.98;;;7.80;99.90;;;;;;4750405;30;20040;-75
2021/01/15 06:48:26;;;;;;;2.10;1.10;;;7.90;99.90;;;;;;4714994;30;20033;-76
2021/01/15 06:50:54;;;;;;;2.33;0.90;;;7.80;99.90;;;;;;4715095;30;20044;-76
2021/01/15 06:53:34;;;;;;;2.30;1.10;;;7.60;99.90;;;;;;4731501;30;20021;-76
2021/01/15 06:56:02;;;;;;;3.50;1.63;;;7.50;99.90;;;;;;4749835;30;20569;-76
2021/01/15 06:58:30;;;;;;;5.50;2.35;;;7.60;99.90;;;;;;4731953;30;20483;-75
2021/01/15 07:01:22;;;;;;;6.10;2.10;;;7.60;99.90;;;;;;4725001;30;20033;-75
2021/01/15 07:04:04;;;;;;;2.45;1.10;;;7.60;99.90;;;;;;4726748;30;20107;-76
2021/01/15 07:06:36;;;;;;;1.98;1.00;;;7.60;99.90;;;;;;4717807;30;20083;-76
2021/01/15 07:09:09;;;;;;;1.55;0.82;;;7.60;99.90;;;;;;4721336;30;20033;-76
2021/01/15 07:11:42;;;;;;;4.30;2.50;;;7.60;99.90;;;;;;4742637;30;20571;-76
2021/01/15 07:14:08;;;;;;;5.70;2.05;;;7.70;99.90;;;;;;4726176;30;20024;-76
2021/01/15 07:16:36;;;;;;;3.55;1.52;;;7.70;99.90;;;;;;4723401;30;20044;-75
2021/01/15 07:19:05;;;;;;;4.35;2.58;;;7.70;99.90;;;;;;4723404;30;20029;-75
2021/01/15 07:21:36;;;;;;;5.55;2.55;;;7.60;99.90;;;;;;4724142;30;20071;-76
2021/01/15 07:24:09;;;;;;;5.90;1.80;;;7.70;99.90;;;;;;4723091;30;20033;-75
2021/01/15 07:26:39;;;;;;;;;;;7.70;99.90;;;;;;4724535;30;20053;-75
2021/01/15 07:29:09;;;;;;;3.78;1.20;;;7.80;99.90;;;;;;4724703;30;19923;-75
2021/01/15 07:31:38;;;;;;;3.90;1.30;;;7.90;99.90;;;;;;4722216;30;20048;-78
2021/01/15 07:34:06;;;;;;;3.47;0.88;;;7.90;99.90;;;;;;4721664;30;20435;-76
2021/01/15 07:36:38;;;;;;;0.75;0.40;;;8.00;99.90;;;;;;4718964;30;20040;-76
2021/01/15 07:39:16;;;;;;;3.20;0.90;;;8.00;99.10;;;;;;4720002;30;20430;-75
2021/01/15 07:41:47;;;;;;;1.92;1.10;;;7.90;99.40;;;;;;4720536;30;20118;-75
2021/01/15 07:44:25;;;;;;;2.00;0.50;;;7.90;99.10;;;;;;4719864;30;20048;-75
2021/01/15 07:46:56;;;;;;;1.38;0.47;;;7.90;99.30;;;;;;4723148;30;20077;-77
2021/01/15 07:49:23;;;;;;;2.33;0.70;;;7.80;98.90;;;;;;4722374;30;20032;-75
2021/01/15 07:52:04;;;;;;;1.48;0.80;;;7.90;99.10;;;;;;4719532;30;20159;-76
2021/01/15 07:54:57;;;;;;;5.75;0.77;;;7.90;98.80;;;;;;4722776;30;20040;-77
2021/01/15 07:57:26;;;;;;;2.42;0.75;;;8.00;98.40;;;;;;4720448;30;20110;-75
2021/01/15 07:59:53;;;;;;;0.68;0.40;;;8.10;98.00;;;;;;4723783;30;20116;-75
2021/01/15 08:02:20;;;;;;;7.80;1.65;;;8.10;97.70;;;;;;4722803;30;20507;-75
2021/01/15 08:04:47;;;;;;;1.30;0.60;;;8.10;97.70;;;;;;4723940;30;20106;-75
2021/01/15 08:07:29;;;;;;;2.95;0.98;;;8.10;97.50;;;;;;4722762;30;20037;-75
2021/01/15 08:09:56;;;;;;;1.13;0.60;;;8.10;98.10;;;;;;4722072;30;20037;-75
2021/01/15 08:12:23;;;;;;;0.50;0.47;;;8.20;97.70;;;;;;4721488;30;20041;-76
2021/01/15 08:14:49;;;;;;;2.60;0.70;;;8.30;97.30;;;;;;4723125;30;20127;-75
2021/01/15 08:17:25;;;;;;;6.55;1.00;;;8.40;97.40;;;;;;4721149;30;20025;-82
2021/01/15 08:19:51;;;;;;;4.40;1.02;;;8.40;96.70;;;;;;4724501;30;20040;-75
2021/01/15 08:22:18;;;;;;;2.40;0.60;;;8.50;97.20;;;;;;4724659;30;20125;-77
2021/01/15 08:24:49;;;;;;;3.40;0.60;;;8.40;97.40;;;;;;4726490;30;20049;-76
2021/01/15 08:27:17;;;;;;;0.82;0.65;;;8.50;96.90;;;;;;4725558;30;20185;-75
2021/01/15 08:29:43;;;;;;;1.95;0.70;;;8.40;96.40;;;;;;4724863;30;20088;-80
2021/01/15 08:32:10;;;;;;;2.23;0.80;;;8.40;97.10;;;;;;4703380;30;768760;-76
2021/01/15 08:34:37;;;;;;;3.22;0.70;;;8.40;96.70;;;;;;4727232;30;20060;-77
2021/01/15 08:37:09;;;;;;;0.93;0.43;;;8.50;96.70;;;;;;4724461;30;20506;-77
2021/01/15 08:39:46;;;;;;;1.15;0.45;;;8.50;96.90;;;;;;4707715;30;20082;-76
2021/01/15 08:42:14;;;;;;;8.10;1.45;;;8.60;97.20;;;;;;4724502;30;20561;-76
2021/01/15 08:44:41;;;;;;;3.25;1.20;;;8.60;96.20;;;;;;4721943;30;20082;-77
2021/01/15 08:47:13;;;;;;;2.35;0.90;;;8.70;97.10;;;;;;4723846;30;20037;-81
2021/01/15 08:49:49;;;;;;;3.83;0.90;;;8.80;96.60;;;;;;4723815;30;20859;-81
2021/01/15 08:52:21;;;;;;;1.58;0.70;;;8.80;96.20;;;;;;4724882;30;20044;-78
2021/01/15 08:54:48;;;;;;;3.17;1.00;;;8.90;96.60;;;;;;4723746;30;20111;-77
2021/01/15 08:57:16;;;;;;;1.40;0.73;;;8.90;97.00;;;;;;4727030;30;20401;-77
2021/01/15 08:59:42;;;;;;;1.85;0.75;;;9.00;96.80;;;;;;4714550;30;20056;-76
2021/01/15 09:02:11;;;;;;;1.90;0.80;;;9.00;97.30;;;;;;4726981;30;20091;-78
2021/01/15 09:04:42;;;;;;;1.05;0.60;;;8.90;96.90;;;;;;4725287;30;20487;-78
2021/01/15 09:07:20;;;;;;;1.85;0.70;;;9.00;97.20;;;;;;4722515;30;20036;-78
2021/01/15 09:09:50;;;;;;;3.33;1.08;;;9.10;97.40;;;;;;4725698;30;20112;-77
2021/01/15 09:12:20;;;;;;;1.92;0.77;;;9.30;96.80;;;;;;4723568;30;20032;-78
2021/01/15 09:14:48;;;;;;;0.57;0.43;;;9.30;95.80;;;;;;4709457;30;20059;-79
2021/01/15 09:17:14;;;;;;;1.88;0.88;;;9.30;96.00;;;;;;4724427;30;20437;-78
2021/01/15 09:19:40;;;;;;;1.50;0.82;;;9.40;96.70;;;;;;4726178;30;20032;-79
2021/01/15 09:22:17;;;;;;;1.45;0.70;;;9.40;96.00;;;;;;4731122;30;20094;-78
2021/01/15 09:24:43;;;;;;;2.47;0.80;;;9.40;95.40;;;;;;4728747;30;20483;-79
2021/01/15 09:27:10;;;;;;;4.97;0.70;;;9.40;95.20;;;;;;4725401;30;20060;-78
2021/01/15 09:29:38;;;;;;;1.83;0.60;;;9.40;95.90;;;;;;4724733;30;20515;-79
2021/01/15 09:32:05;;;;;;;1.52;0.73;;;9.40;94.50;;;;;;4723436;30;20143;-78
2021/01/15 09:34:31;;;;;;;0.75;0.45;;;9.30;94.70;;;;;;4723037;30;20360;-83
2021/01/15 09:36:58;;;;;;;2.35;0.52;;;9.50;95.50;;;;;;4708580;30;20037;-82
2021/01/15 09:39:26;;;;;;;2.38;0.65;;;9.70;95.70;;;;;;4705066;30;20487;-82
2021/01/15 09:41:53;;;;;;;3.75;0.45;;;9.60;95.10;;;;;;4709687;30;20510;-78
2021/01/15 09:44:21;;;;;;;1.50;0.70;;;9.70;92.70;;;;;;4723001;30;20031;-78
2021/01/15 09:46:48;;;;;;;1.17;0.90;;;9.70;92.40;;;;;;4724668;30;20040;-78
2021/01/15 09:49:14;;;;;;;0.60;0.50;;;9.90;93.20;;;;;;4725283;30;20885;-78
2021/01/15 09:52:07;;;;;;;5.20;0.98;;;10.20;93.50;;;;;;4721162;30;20036;-78
2021/01/15 09:54:33;;;;;;;1.92;1.00;;;10.30;93.20;;;;;;4723737;30;20056;-78
2021/01/15 09:57:01;;;;;;;1.20;0.88;;;10.40;93.60;;;;;;4724565;30;20037;-78
2021/01/15 09:59:27;;;;;;;1.63;1.00;;;10.40;92.60;;;;;;4723901;30;20025;-79
2021/01/15 10:01:54;;;;;;;3.90;1.10;;;10.40;93.00;;;;;;4724228;30;20090;-79
2021/01/15 10:04:20;;;;;;;4.60;0.70;;;10.40;93.10;;;;;;4722240;30;20475;-79
2021/01/15 10:06:46;;;;;;;1.20;0.80;;;10.60;93.20;;;;;;4728035;30;20391;-78
2021/01/15 10:09:14;;;;;;;3.33;0.80;;;10.60;92.80;;;;;;4724786;30;20032;-78
2021/01/15 10:11:45;;;;;;;5.63;0.90;;;10.60;92.40;;;;;;4726995;30;20037;-78
2021/01/15 10:14:13;;;;;;;1.60;0.80;;;10.70;92.80;;;;;;4722820;30;20035;-79
2021/01/15 10:16:40;;;;;;;2.08;0.80;;;11.10;93.40;;;;;;4721631;30;20040;-79
2021/01/15 10:19:27;;;;;;;2.40;0.65;;;11.30;92.00;;;;;;4723287;30;20056;-79
2021/01/15 10:21:55;;;;;;;1.40;0.80;;;11.70;92.20;;;;;;4742785;30;20115;-78
2021/01/15 10:24:21;;;;;;;0.40;0.40;;;11.70;90.60;;;;;;4720104;30;20139;-78
2021/01/15 10:26:47;;;;;;;1.27;0.40;;;11.80;90.30;;;;;;4722527;30;20515;-80
2021/01/15 10:29:15;;;;;;;1.23;0.50;;;12.10;90.60;;;;;;4722862;30;20057;-80
2021/01/15 10:31:52;;;;;;;1.67;0.60;;;12.50;89.70;;;;;;4718080;30;20056;-80
2021/01/15 10:34:18;;;;;;;1.45;0.68;;;12.40;89.00;;;;;;4719494;30;20108;-79
2021/01/15 10:36:45;;;;;;;0.70;0.60;;;12.30;88.70;;;;;;4718286;30;20195;-80
2021/01/15 10:39:12;;;;;;;2.22;0.90;;;11.80;88.10;;;;;;4723275;30;20036;-80
2021/01/15 10:41:41;;;;;;;3.13;0.75;;;11.10;87.10;;;;;;4721126;30;20068;-80
2021/01/15 10:44:09;;;;;;;1.75;1.20;;;10.90;88.20;;;;;;4710869;30;20028;-81
2021/01/15 10:46:47;;;;;;;3.03;0.70;;;10.50;90.10;;;;;;4719380;30;20045;-80
2021/01/15 10:49:17;;;;;;;1.75;0.40;;;10.40;90.90;;;;;;4731973;30;20063;-81
2021/01/15 10:51:47;;;;;;;1.67;0.80;;;10.30;91.40;;;;;;4724488;30;20036;-81
2021/01/15 10:54:13;;;;;;;1.55;0.47;;;10.40;91.80;;;;;;4724601;30;20036;-80
2021/01/15 10:56:42;;;;;;;0.60;0.60;;;10.60;92.00;;;;;;4725050;30;20029;-79
2021/01/15 10:59:09;;;;;;;2.00;0.50;;;10.70;91.70;;;;;;4722779;30;20072;-80
2021/01/15 11:01:47;;;;;;;1.38;0.60;;;10.90;91.90;;;;;;4725790;30;20039;-81
2021/01/15 11:04:16;;;;;;;1.45;0.82;;;11.00;92.10;;;;;;4719842;30;20222;-80
2021/01/15 11:06:44;;;;;;;3.72;1.20;;;11.00;92.50;;;;;;4720647;30;20044;-79
2021/01/15 11:09:18;;;;;;;5.32;0.90;;;10.90;92.10;;;;;;4723392;30;20107;-78
2021/01/15 11:11:46;;;;;;;0.47;0.30;;;10.60;92.60;;;;;;4708264;30;20379;-79
2021/01/15 11:14:14;;;;;;;0.93;0.40;;;10.40;92.10;;;;;;4707771;30;20090;-78
2021/01/15 11:16:41;;;;;;;1.02;0.50;;;10.30;92.00;;;;;;4717445;30;20433;-79
2021/01/15 11:19:07;;;;;;;3.67;0.75;;;10.50;92.80;;;;;;4722909;30;20028;-80
2021/01/15 11:21:50;;;;;;;1.65;0.38;;;10.50;92.10;;;;;;4723185;30;20033;-79
2021/01/15 11:24:24;;;;;;;1.70;0.93;;;10.50;91.70;;;;;;4719313;30;20566;-80
2021/01/15 11:26:50;;;;;;;3.38;0.77;;;10.50;91.90;;;;;;4722102;30;20444;-79
2021/01/15 11:29:16;;;;;;;1.30;0.73;;;10.70;92.10;;;;;;4710712;30;20128;-80
2021/01/15 11:31:43;;;;;;;0.63;0.50;;;10.80;91.80;;;;;;4718676;30;20060;-79
2021/01/15 11:34:11;;;;;;;1.08;0.43;;;10.80;91.10;;;;;;4704660;30;20060;-79
2021/01/15 11:36:38;;;;;;;0.70;0.47;;;10.50;90.60;;;;;;4719298;30;20111;-80
2021/01/15 11:39:08;;;;;;;0.95;0.40;;;10.30;90.70;;;;;;4719266;30;20033;-80
2021/01/15 11:41:34;;;;;;;3.17;0.30;;;10.10;91.00;;;;;;4720061;30;20116;-83
2021/01/15 11:44:00;;;;;;;1.40;0.50;;;10.10;91.20;;;;;;4709976;30;20098;-86
2021/01/15 11:46:26;;;;;;;1.85;0.43;;;10.10;91.10;;;;;;4710662;30;20052;-90
2021/01/15 11:48:52;;;;;;;0.95;0.50;;;10.10;91.60;;;;;;4724586;30;20028;-89
2021/01/15 11:52:01;;;;;;;1.90;0.50;;;10.10;91.60;;;;;;4740198;30;20033;-95
2021/01/15 11:54:28;;;;;;;0.43;0.40;;;10.10;91.10;;;;;;4720366;30;20053;-91
2021/01/15 11:56:54;;;;;;;0.45;0.30;;;10.20;91.40;;;;;;4723082;30;20033;-80
2021/01/15 11:59:20;;;;;;;0.65;0.60;;;10.50;91.30;;;;;;4723056;30;20051;-81
2021/01/15 12:01:47;;;;;;;1.65;0.65;;;10.70;91.00;;;;;;4721311;30;20047;-81
2021/01/15 12:04:13;;;;;;;1.67;0.57;;;10.90;91.30;;;;;;4724762;30;20032;-79
2021/01/15 12:06:39;;;;;;;1.05;0.47;;;11.40;91.80;;;;;;4724529;30;20407;-84
2021/01/15 12:09:05;;;;;;;1.10;0.40;;;11.50;89.80;;;;;;4719443;30;20033;-80
2021/01/15 12:11:36;;;;;;;2.55;0.50;;;11.60;88.90;;;;;;4711214;30;20400;-87
2021/01/15 12:14:02;;;;;;;3.22;0.60;;;12.00;88.60;;;;;;4723238;30;20040;-82
2021/01/15 12:16:28;;;;;;;0.68;0.50;;;11.90;86.80;;;;;;4722970;30;20052;-78
2021/01/15 12:18:54;;;;;;;1.13;0.60;;;11.90;86.50;;;;;;4717898;30;20127;-79
2021/01/15 12:21:20;;;;;;;0.60;0.30;;;11.70;86.60;;;;;;4723844;30;20398;-80
2021/01/15 12:23:47;;;;;;;0.40;0.40;;;11.30;86.50;;;;;;4724564;30;20041;-80
2021/01/15 12:26:13;;;;;;;1.95;0.93;;;11.30;87.20;;;;;;4720861;30;20148;-79
2021/01/15 12:28:39;;;;;;;2.13;0.50;;;11.40;88.30;;;;;;4721310;30;20033;-80
2021/01/15 12:31:05;;;;;;;5.55;2.55;;;11.40;89.20;;;;;;4722185;30;20063;-80
2021/01/15 12:33:31;;;;;;;5.53;2.55;;;11.30;90.70;;;;;;4705698;30;20130;-80
2021/01/15 12:35:57;;;;;;;1.33;1.00;;;11.90;91.10;;;;;;4720748;30;20024;-80
2021/01/15 12:38:24;;;;;;;2.15;0.40;;;12.40;90.80;;;;;;4719255;30;20084;-79
2021/01/15 12:40:51;;;;;;;3.03;0.80;;;12.40;89.30;;;;;;4720528;30;20541;-79
2021/01/15 12:43:17;;;;;;;2.55;0.52;;;12.40;85.90;;;;;;4722919;30;20036;-79
2021/01/15 12:45:47;;;;;;;1.02;0.52;;;12.70;86.20;;;;;;4721411;30;20051;-82
2021/01/15 12:48:14;;;;;;;1.00;0.77;;;12.50;83.40;;;;;;4706618;30;20136;-84
2021/01/15 13:01:11;;;;;;;0.52;0.40;;;11.60;84.30;;;;;;4720684;30;20132;-78
2021/01/15 13:03:38;;;;;;;1.08;0.52;;;11.10;86.50;;;;;;4726511;30;20098;-83
2021/01/15 13:06:05;;;;;;;9.50;5.82;;;11.00;86.90;;;;;;4726794;30;20048;-85
2021/01/15 13:08:31;;;;;;;17.33;9.48;;;11.00;88.00;;;;;;4722496;30;20056;-82
2021/01/15 13:10:57;;;;;;;8.90;6.00;;;11.10;88.70;;;;;;4711861;30;20127;-81
2021/01/15 13:13:23;;;;;;;39.53;21.48;;;11.00;87.30;;;;;;4725266;30;20534;-82
2021/01/15 13:15:49;;;;;;;9.77;6.85;;;11.00;88.50;;;;;;4696155;30;20080;-82
2021/01/15 13:18:15;;;;;;;6.25;4.30;;;11.00;89.30;;;;;;4723649;30;20558;-82
2021/01/15 13:20:41;;;;;;;5.35;3.08;;;11.00;89.60;;;;;;4723498;30;20131;-81
2021/01/15 13:23:11;;;;;;;5.22;2.85;;;10.90;87.90;;;;;;4724433;30;20127;-82